Terminal Aerodrome Forecast
Issued by NWS Cleveland, OH

Home | Current Version | Previous Version | Graphics & Text | Print | Product List | Glossary Off
Versions: 1 2 3 4 5 6 7 8 9 10 11 12 13 14 15 16 17

000
FTUS41 KCLE 131700
TAFYNG
TAF
KYNG 131724Z 1318/1418 24012G20KT P6SM VCTS SCT025 BKN035CB OVC100
      TEMPO 1318/1320 VRB25G35KT 1SM TSRA BR BKN025CB OVC035
     FM132100 25012KT P6SM BKN035 OVC100
     FM140400 VRB03KT P6SM SCT035 BKN100
     FM140900 VRB03KT 3SM BR SCT008
      TEMPO 1409/1412 1 1/2SM BR BKN008
     FM141400 22006KT P6SM SCT035 BKN150=

USA.gov is the U.S. government's official web portal to all federal, state and local government web resources and services.